Time;durP1;ratioP1;P1;durP2;ratioP2;P2;SDS_P1;SDS_P2;PMS_P1;PMS_P2;Temp;Humidity;BMP_temperature;BMP_pressure;BME280_temperature;BME280_humidity;BME280_pressure;Samples;Min_cycle;Max_cycle;Signal;HPM_P1;HPM_P2
2022/06/12 00:00:11;;;;;;;14.25;4.68;;;16.40;99.90;;;;;;4981643;28;20210;-73
2022/06/12 00:02:42;;;;;;;9.32;4.40;;;16.40;99.90;;;;;;4976123;28;20282;-73
2022/06/12 00:05:10;;;;;;;19.92;7.95;;;16.50;99.90;;;;;;4975873;28;20630;-73
2022/06/12 00:07:37;;;;;;;16.05;5.40;;;16.40;99.90;;;;;;4976439;28;20299;-73
2022/06/12 00:10:05;;;;;;;10.38;5.32;;;16.50;99.90;;;;;;4969509;28;20358;-73
2022/06/12 00:12:33;;;;;;;16.55;4.97;;;16.50;99.90;;;;;;4968632;28;20312;-73
2022/06/12 00:15:01;;;;;;;11.88;5.00;;;16.50;99.90;;;;;;4977016;28;20302;-72
2022/06/12 00:17:30;;;;;;;15.27;5.97;;;16.50;99.90;;;;;;4973888;28;20235;-73
2022/06/12 00:19:57;;;;;;;14.32;6.15;;;16.50;99.90;;;;;;4975903;28;20617;-73
2022/06/12 00:22:24;;;;;;;13.50;6.03;;;16.40;99.90;;;;;;4975815;28;20560;-73
2022/06/12 00:24:51;;;;;;;10.45;5.90;;;16.30;99.90;;;;;;4974509;28;20206;-73
2022/06/12 00:27:18;;;;;;;12.13;7.50;;;16.30;99.90;;;;;;4976952;28;20204;-72
2022/06/12 00:29:47;;;;;;;19.50;8.27;;;16.20;99.90;;;;;;4974693;28;20226;-73
2022/06/12 00:32:16;;;;;;;11.38;6.75;;;16.20;99.90;;;;;;4978839;28;20572;-73
2022/06/12 00:34:47;;;;;;;17.45;6.93;;;16.30;99.90;;;;;;4983342;28;20205;-72
2022/06/12 00:37:17;;;;;;;12.52;6.63;;;16.20;99.90;;;;;;4978756;28;20282;-73
2022/06/12 00:39:46;;;;;;;14.10;7.95;;;16.20;99.90;;;;;;4975866;28;20198;-73
2022/06/12 00:42:22;;;;;;;16.77;7.18;;;16.00;99.90;;;;;;4974489;28;20667;-73
2022/06/12 00:44:50;;;;;;;14.68;7.78;;;16.00;99.90;;;;;;4974583;28;20660;-74
2022/06/12 00:47:17;;;;;;;10.50;5.82;;;15.90;99.90;;;;;;4973820;28;20202;-73
2022/06/12 00:49:49;;;;;;;12.32;5.95;;;15.90;99.90;;;;;;4972244;28;20230;-74
2022/06/12 00:52:22;;;;;;;20.23;6.60;;;15.80;99.90;;;;;;4974059;28;20697;-73
2022/06/12 00:54:52;;;;;;;16.65;7.53;;;15.80;99.90;;;;;;4974274;28;20653;-73
2022/06/12 00:57:20;;;;;;;16.33;6.53;;;15.70;99.90;;;;;;4973857;28;20230;-71
2022/06/12 00:59:49;;;;;;;15.77;5.60;;;15.70;99.90;;;;;;4973424;28;20289;-73
2022/06/12 01:02:20;;;;;;;21.40;6.85;;;15.70;99.90;;;;;;4972892;28;20238;-72
2022/06/12 01:07:36;;;;;;;13.70;6.63;;;15.80;99.90;;;;;;4972252;28;20416;-73
2022/06/12 01:10:09;;;;;;;17.35;6.68;;;15.70;99.90;;;;;;4963852;28;20241;-73
2022/06/12 01:12:49;;;;;;;13.10;7.72;;;15.60;99.90;;;;;;4978332;28;20654;-72
2022/06/12 01:15:19;;;;;;;12.18;6.35;;;15.60;99.90;;;;;;4968348;28;20599;-73
2022/06/12 01:17:48;;;;;;;15.68;5.80;;;15.50;99.90;;;;;;4968739;28;20229;-72
2022/06/12 01:20:19;;;;;;;17.48;7.72;;;15.50;99.90;;;;;;4973346;28;20257;-72
2022/06/12 01:23:27;;;;;;;12.10;6.90;;;15.60;99.90;;;;;;4973688;28;20234;-72
2022/06/12 01:26:26;;;;;;;10.48;5.65;;;15.50;99.90;;;;;;4942719;28;20570;-72
2022/06/12 01:28:59;;;;;;;18.75;6.00;;;15.50;99.90;;;;;;4972044;28;20216;-73
2022/06/12 01:31:45;;;;;;;15.10;6.18;;;15.40;99.90;;;;;;4965484;28;20219;-72
2022/06/12 01:34:39;;;;;;;18.25;6.47;;;15.40;99.90;;;;;;4972708;28;20210;-72
2022/06/12 01:37:26;;;;;;;9.88;4.60;;;15.40;99.90;;;;;;4969436;28;20306;-72
2022/06/12 01:40:02;;;;;;;15.43;5.68;;;15.30;99.90;;;;;;4970816;28;20206;-73
2022/06/12 01:42:37;;;;;;;18.60;6.22;;;15.30;99.90;;;;;;4973617;28;20225;-72
2022/06/12 01:45:16;;;;;;;18.52;7.68;;;15.20;99.90;;;;;;4972467;28;20256;-73
2022/06/12 01:47:54;;;;;;;11.90;5.50;;;15.30;99.90;;;;;;4973317;28;20293;-72
2022/06/12 01:50:34;;;;;;;10.63;4.95;;;15.20;99.90;;;;;;4969142;28;20327;-73
2022/06/12 01:53:07;;;;;;;14.75;6.15;;;15.20;99.90;;;;;;4979588;28;20241;-73
2022/06/12 01:55:41;;;;;;;14.57;5.30;;;15.10;99.90;;;;;;4974752;28;20198;-72
2022/06/12 01:58:14;;;;;;;11.93;6.28;;;15.10;99.90;;;;;;4968850;28;20200;-73
2022/06/12 02:00:48;;;;;;;15.55;6.35;;;15.10;99.90;;;;;;4966168;28;20198;-73
2022/06/12 02:03:22;;;;;;;10.07;6.15;;;15.00;99.90;;;;;;4976066;28;20313;-72
2022/06/12 02:05:56;;;;;;;12.55;6.57;;;15.10;99.90;;;;;;4964544;28;20617;-72
2022/06/12 02:08:28;;;;;;;15.90;5.35;;;15.00;99.90;;;;;;4968796;28;20300;-70
2022/06/12 02:13:10;;;;;;;17.60;5.88;;;14.90;99.90;;;;;;4975692;28;20216;-72
2022/06/12 02:13:48;;;;;;;11.05;5.20;;;14.90;99.90;;;;;;4967752;28;20234;-71
2022/06/12 02:16:19;;;;;;;12.57;6.28;;;14.90;99.90;;;;;;4972501;28;20649;-72
2022/06/12 02:18:50;;;;;;;12.75;5.40;;;14.80;99.90;;;;;;4972714;28;20658;-72
2022/06/12 02:21:22;;;;;;;13.32;5.50;;;14.80;99.90;;;;;;4961946;28;20203;-72
2022/06/12 02:23:56;;;;;;;9.00;5.70;;;14.80;99.90;;;;;;4975037;28;20292;-70
2022/06/12 02:26:27;;;;;;;17.20;5.75;;;14.70;99.90;;;;;;4976416;28;20240;-70
2022/06/12 02:28:58;;;;;;;12.25;4.68;;;14.70;99.90;;;;;;4977680;28;20225;-72
2022/06/12 02:31:31;;;;;;;10.43;4.68;;;14.70;99.90;;;;;;4981046;28;20632;-72
2022/06/12 02:34:02;;;;;;;18.90;5.80;;;14.70;99.90;;;;;;4986292;28;20248;-72
2022/06/12 02:36:33;;;;;;;9.30;5.15;;;14.70;99.90;;;;;;4975804;28;20205;-72
2022/06/12 02:39:11;;;;;;;14.13;5.38;;;14.60;99.90;;;;;;4975483;28;20198;-71
2022/06/12 02:41:44;;;;;;;13.73;5.70;;;14.70;99.90;;;;;;4967001;28;20248;-71
2022/06/12 02:44:14;;;;;;;17.25;6.65;;;14.70;99.90;;;;;;4975831;28;20206;-73
2022/06/12 02:46:49;;;;;;;17.30;8.45;;;14.70;99.90;;;;;;4975247;28;20285;-70
2022/06/12 02:49:17;;;;;;;10.00;4.80;;;14.70;99.90;;;;;;4976748;28;20316;-72
2022/06/12 02:51:54;;;;;;;22.30;6.28;;;14.70;99.90;;;;;;4973873;28;20290;-70
2022/06/12 02:54:28;;;;;;;14.23;4.80;;;14.70;99.90;;;;;;4976987;28;20210;-72
2022/06/12 02:57:05;;;;;;;10.18;4.85;;;14.70;99.90;;;;;;4976948;28;20301;-71
2022/06/12 02:59:47;;;;;;;13.52;5.25;;;14.60;99.90;;;;;;4971705;28;20229;-72
2022/06/12 03:02:19;;;;;;;7.70;4.75;;;14.60;99.90;;;;;;4971056;28;20240;-72
2022/06/12 03:04:54;;;;;;;25.55;6.75;;;14.60;99.90;;;;;;4974532;28;20209;-71
2022/06/12 03:07:21;;;;;;;14.93;6.38;;;14.70;99.90;;;;;;4970548;28;20202;-71
2022/06/12 03:09:48;;;;;;;9.27;5.22;;;14.60;99.90;;;;;;4960626;28;20235;-70
2022/06/12 03:12:15;;;;;;;16.17;5.55;;;14.60;99.90;;;;;;4972293;28;20309;-72
2022/06/12 03:14:44;;;;;;;14.18;4.95;;;14.60;99.90;;;;;;4974320;28;20202;-72
2022/06/12 03:17:11;;;;;;;8.73;5.15;;;14.60;99.90;;;;;;4965492;28;20202;-71
2022/06/12 03:19:53;;;;;;;15.48;4.97;;;14.60;99.90;;;;;;4971484;28;20202;-71
2022/06/12 03:22:29;;;;;;;13.98;4.38;;;14.70;99.90;;;;;;4973274;28;20233;-71
2022/06/12 03:25:10;;;;;;;10.40;4.50;;;14.60;99.90;;;;;;4970890;28;20288;-72
2022/06/12 03:27:53;;;;;;;11.43;5.55;;;14.60;99.90;;;;;;4969584;28;20351;-72
2022/06/12 03:30:25;;;;;;;12.65;5.32;;;14.60;99.90;;;;;;4974600;28;20226;-72
2022/06/12 03:33:00;;;;;;;12.65;4.88;;;14.80;99.90;;;;;;4979562;28;20316;-69
2022/06/12 03:35:37;;;;;;;7.93;4.07;;;14.80;99.90;;;;;;4971629;28;20667;-72
2022/06/12 03:38:11;;;;;;;12.18;4.85;;;14.80;99.90;;;;;;4975132;28;20778;-71
2022/06/12 03:40:49;;;;;;;10.82;5.25;;;14.70;99.90;;;;;;4965164;28;20210;-72
2022/06/12 03:43:25;;;;;;;9.07;4.53;;;14.80;99.90;;;;;;4968409;28;20227;-73
2022/06/12 03:46:00;;;;;;;12.35;5.40;;;14.80;99.90;;;;;;4974309;28;20210;-72
2022/06/12 03:48:34;;;;;;;12.13;6.60;;;14.80;99.90;;;;;;4970749;28;20214;-72
2022/06/12 03:51:11;;;;;;;15.55;5.03;;;14.90;99.90;;;;;;4969435;28;20215;-71
2022/06/12 03:53:43;;;;;;;13.98;7.03;;;15.00;99.90;;;;;;4972091;28;20237;-72
2022/06/12 03:59:12;;;;;;;20.65;5.03;;;15.20;99.90;;;;;;4971045;28;20560;-72
2022/06/12 04:01:42;;;;;;;10.07;4.45;;;15.20;99.90;;;;;;4978727;28;20683;-70
2022/06/12 04:04:09;;;;;;;10.38;4.30;;;15.20;99.90;;;;;;4975516;28;20206;-70
2022/06/12 04:06:41;;;;;;;10.60;4.65;;;15.50;99.90;;;;;;4977734;28;20246;-71
2022/06/12 04:09:15;;;;;;;13.43;4.82;;;16.40;99.90;;;;;;4970836;28;20736;-71
2022/06/12 04:11:42;;;;;;;12.63;5.30;;;17.10;99.90;;;;;;4970746;28;20204;-71
2022/06/12 04:14:18;;;;;;;13.23;4.60;;;17.60;99.90;;;;;;4974321;28;20614;-72
2022/06/12 04:16:48;;;;;;;9.57;4.23;;;18.20;99.90;;;;;;4969927;28;20283;-71
2022/06/12 04:19:19;;;;;;;11.17;4.40;;;18.90;99.90;;;;;;4973355;28;20442;-72
2022/06/12 04:21:51;;;;;;;11.30;4.00;;;19.60;99.90;;;;;;4972292;28;20802;-72
2022/06/12 04:24:25;;;;;;;14.23;4.60;;;20.20;99.90;;;;;;4974526;28;20456;-72
2022/06/12 04:26:56;;;;;;;12.23;5.10;;;20.80;99.90;;;;;;4975348;28;20464;-71
2022/06/12 04:29:27;;;;;;;12.73;4.20;;;21.20;99.90;;;;;;4970562;28;20493;-71
2022/06/12 04:31:57;;;;;;;14.70;4.80;;;21.60;99.00;;;;;;4975573;28;20475;-72
2022/06/12 04:34:26;;;;;;;17.20;5.37;;;21.70;97.60;;;;;;4973645;28;20893;-70
2022/06/12 04:36:57;;;;;;;10.53;4.63;;;21.80;97.00;;;;;;4974572;28;20447;-72
2022/06/12 04:39:27;;;;;;;12.17;3.70;;;21.80;97.80;;;;;;4972748;28;21000;-70
2022/06/12 04:41:54;;;;;;;10.00;4.03;;;21.70;96.60;;;;;;4969400;28;20466;-72
2022/06/12 04:44:22;;;;;;;10.40;4.40;;;22.10;96.80;;;;;;4973526;28;20458;-71
2022/06/12 04:46:52;;;;;;;10.07;3.73;;;22.20;95.80;;;;;;4975189;28;20449;-72
2022/06/12 04:49:21;;;;;;;11.20;4.27;;;22.90;95.10;;;;;;4974358;28;20480;-72
2022/06/12 04:51:49;;;;;;;12.47;4.73;;;23.20;94.20;;;;;;4968651;28;20539;-71
2022/06/12 04:54:17;;;;;;;7.63;3.43;;;23.70;93.30;;;;;;4962403;28;20450;-71
2022/06/12 04:56:45;;;;;;;12.50;4.13;;;24.50;92.10;;;;;;4973555;28;20541;-71
2022/06/12 04:59:14;;;;;;;12.70;3.70;;;24.70;91.00;;;;;;4973838;28;20456;-72
2022/06/12 05:01:42;;;;;;;7.47;4.60;;;24.80;90.20;;;;;;4971858;28;20456;-72
2022/06/12 05:04:10;;;;;;;9.70;4.23;;;25.40;89.40;;;;;;4973620;28;20591;-72
2022/06/12 05:06:38;;;;;;;10.80;4.30;;;25.90;87.20;;;;;;4971125;28;20444;-72
2022/06/12 05:09:07;;;;;;;8.60;3.83;;;26.20;85.90;;;;;;4971792;28;20478;-71
2022/06/12 05:11:35;;;;;;;8.07;3.00;;;26.80;83.90;;;;;;4972335;28;20442;-71
2022/06/12 05:14:02;;;;;;;11.57;5.37;;;26.50;82.50;;;;;;4976391;28;20445;-72
2022/06/12 05:16:34;;;;;;;8.30;3.30;;;26.10;83.50;;;;;;4965688;28;20533;-71
2022/06/12 05:19:02;;;;;;;13.73;3.93;;;26.10;84.50;;;;;;4971594;28;20565;-71
2022/06/12 05:21:31;;;;;;;8.07;2.97;;;26.30;83.00;;;;;;4975321;28;20955;-72
2022/06/12 05:24:00;;;;;;;10.03;4.20;;;26.40;82.80;;;;;;4974700;28;20450;-71
2022/06/12 05:26:28;;;;;;;10.37;4.37;;;26.70;82.40;;;;;;4974396;28;20549;-71
2022/06/12 05:28:56;;;;;;;11.10;3.93;;;27.10;81.40;;;;;;4973837;28;20446;-72
2022/06/12 05:31:23;;;;;;;10.43;3.50;;;27.00;79.70;;;;;;4972535;28;20445;-72
2022/06/12 05:33:51;;;;;;;13.87;3.93;;;26.80;81.40;;;;;;4968651;28;20564;-71
2022/06/12 05:36:18;;;;;;;7.77;2.80;;;27.50;80.70;;;;;;4973933;28;20446;-72
2022/06/12 05:38:46;;;;;;;8.60;3.50;;;28.00;78.80;;;;;;4973594;28;20521;-71
2022/06/12 05:41:14;;;;;;;7.03;2.90;;;27.80;78.40;;;;;;4971189;28;20449;-72
2022/06/12 05:43:41;;;;;;;9.27;3.27;;;28.00;77.70;;;;;;4972780;28;20919;-72
2022/06/12 05:46:12;;;;;;;5.93;3.30;;;28.00;78.20;;;;;;4972076;28;20449;-72
2022/06/12 05:48:40;;;;;;;13.30;3.67;;;28.20;77.40;;;;;;4968542;28;20580;-72
2022/06/12 05:51:07;;;;;;;11.73;3.40;;;28.60;76.50;;;;;;4973158;28;20507;-73
2022/06/12 05:53:36;;;;;;;8.27;3.77;;;29.00;75.60;;;;;;4987793;28;20516;-71
2022/06/12 05:56:06;;;;;;;7.03;3.43;;;29.00;73.90;;;;;;4976217;28;20897;-71
2022/06/12 05:58:34;;;;;;;6.40;2.73;;;29.10;74.60;;;;;;4979958;28;20460;-72
2022/06/12 06:01:01;;;;;;;6.77;2.73;;;29.50;74.10;;;;;;4965088;28;20445;-72
2022/06/12 06:03:30;;;;;;;8.33;4.07;;;29.70;73.50;;;;;;4986294;28;20547;-72
2022/06/12 06:05:58;;;;;;;11.00;4.50;;;29.20;74.10;;;;;;4979920;28;20450;-71
2022/06/12 06:08:25;;;;;;;9.60;3.20;;;29.40;73.80;;;;;;4981154;28;20494;-71
2022/06/12 06:10:52;;;;;;;8.00;3.23;;;30.00;72.90;;;;;;4973864;28;20919;-73
2022/06/12 06:13:20;;;;;;;10.03;3.03;;;30.00;71.70;;;;;;4980367;28;20532;-73
2022/06/12 06:15:50;;;;;;;6.40;3.50;;;30.50;71.50;;;;;;4979788;28;20461;-72
2022/06/12 06:18:17;;;;;;;7.67;3.80;;;30.60;70.70;;;;;;4972439;28;20460;-72
2022/06/12 06:20:47;;;;;;;9.67;2.80;;;30.70;69.90;;;;;;4978759;28;20456;-72
2022/06/12 06:23:14;;;;;;;6.07;2.70;;;30.70;69.40;;;;;;4974078;28;20505;-73
2022/06/12 06:25:42;;;;;;;8.73;3.10;;;30.90;69.30;;;;;;4975324;28;20518;-72
2022/06/12 06:28:11;;;;;;;8.53;3.30;;;30.50;68.80;;;;;;4971394;28;20554;-72
2022/06/12 06:30:39;;;;;;;8.27;2.60;;;30.20;69.20;;;;;;4969262;28;20466;-72
2022/06/12 06:33:06;;;;;;;13.03;4.27;;;29.90;69.50;;;;;;4969423;28;20564;-72
2022/06/12 06:35:33;;;;;;;10.00;3.20;;;30.00;69.40;;;;;;4980778;28;20451;-71
2022/06/12 06:38:01;;;;;;;8.50;3.20;;;29.50;69.50;;;;;;4978998;28;20446;-74
2022/06/12 06:40:30;;;;;;;10.73;2.90;;;30.20;70.00;;;;;;4967635;28;20449;-70
2022/06/12 06:42:57;;;;;;;7.87;2.60;;;30.40;68.30;;;;;;4973363;28;20506;-73
2022/06/12 06:48:11;;;;;;;9.70;3.40;;;31.00;68.10;;;;;;4972005;28;20456;-72
2022/06/12 06:50:39;;;;;;;10.17;3.80;;;31.00;68.50;;;;;;4972442;28;20917;-71
2022/06/12 06:53:09;;;;;;;10.57;3.00;;;30.90;66.50;;;;;;4972308;28;20461;-71
2022/06/12 06:55:37;;;;;;;7.97;2.80;;;31.00;68.10;;;;;;4970925;28;20453;-73
2022/06/12 06:58:07;;;;;;;10.20;3.23;;;31.40;66.70;;;;;;4971149;28;20461;-72
2022/06/12 07:00:35;;;;;;;11.30;3.30;;;31.50;65.20;;;;;;4972899;28;20851;-71
2022/06/12 07:03:02;;;;;;;7.93;3.07;;;31.60;66.10;;;;;;4971414;28;20476;-73
2022/06/12 07:05:30;;;;;;;7.30;2.63;;;31.70;65.50;;;;;;4970988;28;20457;-72
2022/06/12 07:07:57;;;;;;;10.33;2.97;;;31.60;65.00;;;;;;4975070;28;20442;-69
2022/06/12 07:10:27;;;;;;;8.93;2.50;;;31.50;64.40;;;;;;4975317;28;20473;-69
2022/06/12 07:12:55;;;;;;;7.70;3.37;;;31.30;64.90;;;;;;4976187;28;20548;-73
2022/06/12 07:15:23;;;;;;;8.20;2.90;;;31.40;64.60;;;;;;4975358;28;20533;-72
2022/06/12 07:17:50;;;;;;;8.10;3.63;;;31.50;63.90;;;;;;4986302;28;20450;-73
2022/06/12 07:20:20;;;;;;;6.87;2.43;;;31.90;64.30;;;;;;4974778;28;20449;-71
2022/06/12 07:22:47;;;;;;;8.50;3.43;;;31.40;64.00;;;;;;4975816;28;20560;-71
2022/06/12 07:25:16;;;;;;;7.57;2.60;;;31.30;64.40;;;;;;4978510;28;20476;-71
2022/06/12 07:27:44;;;;;;;14.13;3.10;;;31.40;64.50;;;;;;4984323;28;20445;-72
2022/06/12 07:30:16;;;;;;;14.30;4.47;;;31.50;62.90;;;;;;4982621;28;20560;-71
2022/06/12 07:32:44;;;;;;;8.10;2.90;;;31.30;62.20;;;;;;4982262;28;20976;-72
2022/06/12 07:35:11;;;;;;;7.77;2.67;;;32.10;62.40;;;;;;4979631;28;20450;-71
2022/06/12 07:37:38;;;;;;;6.10;2.40;;;32.30;59.50;;;;;;4981833;28;20461;-71
2022/06/12 07:40:08;;;;;;;9.07;3.57;;;32.60;59.50;;;;;;4983795;28;20472;-71
2022/06/12 07:42:35;;;;;;;7.23;2.43;;;32.20;58.10;;;;;;4980623;28;20477;-71
2022/06/12 07:45:04;;;;;;;5.23;2.53;;;31.70;58.80;;;;;;4984634;28;20485;-71
2022/06/12 07:47:32;;;;;;;7.63;2.40;;;31.50;58.90;;;;;;4983445;28;20465;-71
2022/06/12 07:49:59;;;;;;;8.73;2.83;;;31.70;59.20;;;;;;4973795;28;20497;-71
2022/06/12 07:52:27;;;;;;;9.10;2.87;;;32.30;58.20;;;;;;4972866;28;20555;-72
2022/06/12 07:54:55;;;;;;;8.70;2.80;;;32.70;57.80;;;;;;4980738;28;20938;-72
2022/06/12 07:57:22;;;;;;;7.60;2.67;;;32.40;56.80;;;;;;4976928;28;20451;-72
2022/06/12 07:59:49;;;;;;;6.23;2.87;;;31.90;57.30;;;;;;4984722;28;20445;-72
2022/06/12 08:02:18;;;;;;;8.20;3.17;;;31.80;57.90;;;;;;4988143;28;20540;-72
2022/06/12 08:04:45;;;;;;;6.60;2.37;;;32.20;57.00;;;;;;4981380;28;20542;-73
2022/06/12 08:07:12;;;;;;;6.17;2.20;;;32.30;57.10;;;;;;4969097;28;20486;-71
2022/06/12 08:09:39;;;;;;;9.60;3.80;;;32.20;56.60;;;;;;4981388;28;20448;-72
2022/06/12 08:12:07;;;;;;;6.53;2.87;;;32.30;56.70;;;;;;4987522;28;20535;-72
2022/06/12 08:14:34;;;;;;;4.73;2.33;;;32.00;56.10;;;;;;4980991;28;20441;-71
2022/06/12 08:17:01;;;;;;;6.20;2.40;;;32.30;57.30;;;;;;4978094;28;20809;-71
2022/06/12 08:22:16;;;;;;;9.83;2.73;;;32.90;55.00;;;;;;4973195;28;20512;-71
2022/06/12 08:24:44;;;;;;;6.23;2.23;;;31.90;54.70;;;;;;4976576;28;20955;-71
2022/06/12 08:27:11;;;;;;;7.27;2.20;;;32.20;55.00;;;;;;4977671;28;20525;-72
2022/06/12 08:29:39;;;;;;;6.77;2.10;;;32.10;55.20;;;;;;4972473;28;20458;-73
2022/06/12 08:32:12;;;;;;;5.87;1.90;;;31.80;55.20;;;;;;4978713;28;21161;-76
2022/06/12 08:38:02;;;;;;;5.93;2.40;;;31.40;54.60;;;;;;4976941;23;20499;-81
2022/06/12 08:40:35;;;;;;;6.03;1.97;;;31.30;55.30;;;;;;4989760;28;20496;-81
2022/06/12 08:43:12;;;;;;;5.33;2.07;;;31.40;55.30;;;;;;4992337;28;20641;-81
2022/06/12 08:45:45;;;;;;;7.57;1.80;;;31.40;55.00;;;;;;4993491;28;20459;-82
2022/06/12 08:48:18;;;;;;;4.43;1.77;;;32.10;55.30;;;;;;4991652;28;20902;-78
2022/06/12 08:50:53;;;;;;;3.47;1.20;;;32.40;53.50;;;;;;4992609;28;20620;-81
2022/06/12 08:53:32;;;;;;;4.00;1.90;;;33.20;52.60;;;;;;4991529;28;20776;-79
2022/06/12 08:56:05;;;;;;;4.73;1.53;;;33.30;50.80;;;;;;4996706;28;20455;-80
2022/06/12 08:58:39;;;;;;;7.93;2.00;;;33.30;50.90;;;;;;4997120;28;20472;-80
2022/06/12 09:01:05;;;;;;;3.83;1.50;;;33.60;50.90;;;;;;4991449;28;20493;-79
2022/06/12 09:03:37;;;;;;;5.73;1.90;;;33.70;50.40;;;;;;5004401;28;20449;-79
2022/06/12 09:06:14;;;;;;;3.50;1.50;;;32.40;49.80;;;;;;5008481;28;20485;-79
2022/06/12 09:08:47;;;;;;;6.77;2.10;;;32.40;50.70;;;;;;5010103;28;20444;-78
2022/06/12 09:11:19;;;;;;;9.40;2.40;;;31.70;51.40;;;;;;5012712;28;20477;-81
2022/06/12 09:13:56;;;;;;;4.50;1.37;;;31.30;52.60;;;;;;5021373;28;20459;-80
2022/06/12 09:16:30;;;;;;;4.30;1.30;;;31.40;52.80;;;;;;5018006;28;20436;-79
2022/06/12 09:19:08;;;;;;;2.70;1.40;;;31.80;52.60;;;;;;5012024;28;20445;-81
2022/06/12 09:21:43;;;;;;;6.07;1.67;;;31.50;52.40;;;;;;5006674;28;20487;-80
2022/06/12 09:24:26;;;;;;;4.50;1.60;;;31.70;53.20;;;;;;5011993;28;20448;-79
2022/06/12 09:27:03;;;;;;;3.40;1.47;;;31.40;52.50;;;;;;5020142;28;20479;-81
2022/06/12 09:29:41;;;;;;;8.70;2.37;;;30.70;52.60;;;;;;5011485;28;20464;-80
2022/06/12 09:32:20;;;;;;;4.73;1.60;;;30.10;53.90;;;;;;5018381;28;20456;-82
2022/06/12 09:35:05;;;;;;;3.67;1.90;;;30.20;55.20;;;;;;5013709;28;20457;-81
2022/06/12 09:40:34;;;;;;;10.07;2.20;;;30.60;53.40;;;;;;5011655;28;20516;-78
2022/06/12 09:43:11;;;;;;;4.23;1.77;;;30.80;54.50;;;;;;5000719;28;20445;-81
2022/06/12 09:46:02;;;;;;;7.90;2.30;;;31.40;53.40;;;;;;5014734;28;20541;-79
2022/06/12 09:48:49;;;;;;;8.70;3.37;;;31.30;53.40;;;;;;5006253;28;20465;-78
2022/06/12 09:51:33;;;;;;;5.23;1.83;;;30.40;53.90;;;;;;5013400;28;20476;-81
2022/06/12 09:54:25;;;;;;;5.73;1.97;;;30.10;54.90;;;;;;5013987;28;20449;-79
2022/06/12 09:57:02;;;;;;;6.47;2.53;;;30.10;55.20;;;;;;5013774;28;20448;-79
2022/06/12 09:59:34;;;;;;;7.07;1.83;;;30.20;55.70;;;;;;5010258;28;20495;-79
2022/06/12 10:02:08;;;;;;;3.57;2.00;;;29.90;55.60;;;;;;5006793;28;20552;-79
2022/06/12 10:04:43;;;;;;;6.20;2.67;;;29.70;55.80;;;;;;4999112;28;20438;-81
2022/06/12 10:07:16;;;;;;;5.77;1.77;;;29.40;56.20;;;;;;4999050;28;20525;-79
2022/06/12 10:09:48;;;;;;;8.83;3.10;;;29.30;56.30;;;;;;4997124;28;20520;-80
2022/06/12 10:12:21;;;;;;;5.53;1.90;;;29.40;57.30;;;;;;5004654;28;20460;-79
2022/06/12 10:14:53;;;;;;;6.73;2.47;;;29.60;57.30;;;;;;5002205;28;20509;-81
2022/06/12 10:17:23;;;;;;;5.13;2.00;;;29.60;57.10;;;;;;5013468;28;20439;-79
2022/06/12 10:19:57;;;;;;;11.83;2.63;;;29.40;57.30;;;;;;5011666;28;20441;-78
2022/06/12 10:22:29;;;;;;;8.20;2.67;;;29.10;57.60;;;;;;5015589;28;20519;-78
2022/06/12 10:24:57;;;;;;;5.13;2.20;;;29.00;58.00;;;;;;5016924;28;20445;-81
2022/06/12 10:27:26;;;;;;;5.97;2.00;;;29.00;58.90;;;;;;4998358;28;20488;-83
2022/06/12 10:29:57;;;;;;;5.60;1.80;;;29.50;58.10;;;;;;5005192;28;20568;-82
2022/06/12 10:32:29;;;;;;;3.83;1.60;;;29.70;57.40;;;;;;5004882;28;20441;-82
2022/06/12 10:35:14;;;;;;;5.50;2.33;;;29.50;57.20;;;;;;4991331;28;20945;-81
2022/06/12 10:37:41;;;;;;;7.60;1.70;;;28.70;58.10;;;;;;4992564;28;20824;-81
2022/06/12 10:40:17;;;;;;;6.50;1.93;;;28.30;58.80;;;;;;5008692;28;20537;-82
2022/06/12 10:42:51;;;;;;;11.53;2.80;;;27.70;59.50;;;;;;4995573;28;20475;-81
2022/06/12 10:45:22;;;;;;;3.97;1.50;;;27.00;61.40;;;;;;5008653;28;20480;-80
2022/06/12 10:47:53;;;;;;;5.00;2.20;;;26.90;62.30;;;;;;5010133;28;20455;-85
2022/06/12 10:50:27;;;;;;;4.37;1.53;;;27.30;61.70;;;;;;5004946;28;20536;-81
2022/06/12 10:52:58;;;;;;;8.07;2.60;;;27.20;62.00;;;;;;5005175;28;20509;-81
2022/06/12 10:55:45;;;;;;;5.20;2.13;;;27.00;61.70;;;;;;4996933;28;20531;-81
2022/06/12 10:58:36;;;;;;;4.90;2.57;;;27.50;62.30;;;;;;5008551;28;20531;-80
2022/06/12 11:01:15;;;;;;;4.40;1.70;;;27.60;60.60;;;;;;5010126;28;21077;-80
2022/06/12 11:03:54;;;;;;;6.50;2.17;;;27.30;61.80;;;;;;4991468;28;20447;-82
2022/06/12 11:06:30;;;;;;;8.20;2.70;;;27.10;61.70;;;;;;5009186;28;20444;-80
2022/06/12 11:09:12;;;;;;;9.10;2.70;;;27.30;61.60;;;;;;5009633;28;21109;-79
2022/06/12 11:11:55;;;;;;;3.73;1.73;;;27.40;61.50;;;;;;5006156;28;20484;-79
2022/06/12 11:14:36;;;;;;;7.60;1.97;;;27.00;60.60;;;;;;5001406;28;20473;-81
2022/06/12 11:17:14;;;;;;;7.73;2.60;;;26.90;63.60;;;;;;5009000;28;20492;-80
2022/06/12 11:19:56;;;;;;;7.17;1.93;;;26.20;63.30;;;;;;5012468;28;20540;-80
2022/06/12 11:22:41;;;;;;;5.00;1.70;;;25.90;63.60;;;;;;5007827;28;20492;-81
2022/06/12 11:25:33;;;;;;;6.33;2.43;;;26.00;64.80;;;;;;5008371;28;20479;-81
2022/06/12 11:28:21;;;;;;;5.10;2.03;;;26.20;65.30;;;;;;5014398;28;20444;-79
2022/06/12 11:30:57;;;;;;;6.30;2.27;;;26.50;65.50;;;;;;5012757;28;20506;-80
2022/06/12 11:33:53;;;;;;;6.00;2.40;;;26.80;64.40;;;;;;5012317;28;20456;-80
2022/06/12 11:36:27;;;;;;;4.93;2.13;;;26.90;62.00;;;;;;5015362;28;20492;-81
2022/06/12 11:39:10;;;;;;;8.30;2.73;;;26.50;62.40;;;;;;5013942;28;20515;-80
2022/06/12 11:41:53;;;;;;;5.70;2.40;;;26.20;63.20;;;;;;5017686;28;20491;-80
2022/06/12 11:44:34;;;;;;;9.00;2.90;;;25.80;64.10;;;;;;5015435;28;20448;-80
2022/06/12 11:47:10;;;;;;;5.77;2.27;;;25.70;65.10;;;;;;5009829;28;20476;-80
2022/06/12 11:49:47;;;;;;;7.70;2.03;;;26.20;66.00;;;;;;5005930;28;20472;-80
2022/06/12 11:52:33;;;;;;;5.10;1.90;;;26.40;66.40;;;;;;5006795;28;20441;-81
2022/06/12 11:55:17;;;;;;;12.10;2.70;;;26.50;66.00;;;;;;5004783;28;20543;-82
2022/06/12 11:57:57;;;;;;;7.40;2.10;;;26.70;66.30;;;;;;4994262;28;20786;-80
2022/06/12 12:00:33;;;;;;;7.57;3.07;;;26.70;66.60;;;;;;5013720;28;20640;-80
2022/06/12 12:03:24;;;;;;;7.97;2.20;;;26.90;67.00;;;;;;5006004;28;20571;-81
2022/06/12 12:05:57;;;;;;;10.63;2.87;;;27.00;65.30;;;;;;5002601;28;20516;-79
2022/06/12 12:08:44;;;;;;;10.10;3.10;;;26.60;64.90;;;;;;5013978;28;20504;-82
2022/06/12 12:11:17;;;;;;;9.23;2.77;;;26.40;65.70;;;;;;5004487;28;20584;-81
2022/06/12 12:13:48;;;;;;;5.10;2.27;;;26.40;67.00;;;;;;5005936;28;20469;-81
2022/06/12 12:16:36;;;;;;;7.70;2.60;;;26.40;66.40;;;;;;5005340;28;20425;-81
2022/06/12 12:19:14;;;;;;;7.07;3.00;;;26.00;66.30;;;;;;5004621;28;20569;-80
2022/06/12 12:21:48;;;;;;;9.43;3.10;;;26.00;67.80;;;;;;5004120;28;21062;-81
2022/06/12 12:24:19;;;;;;;6.77;2.23;;;26.10;67.00;;;;;;5009042;28;20470;-81
2022/06/12 12:26:47;;;;;;;6.30;2.17;;;26.00;68.20;;;;;;5011727;28;20443;-81
2022/06/12 12:29:17;;;;;;;4.27;2.40;;;25.90;67.20;;;;;;5009671;28;20483;-82
2022/06/12 12:31:47;;;;;;;5.40;2.57;;;25.70;67.80;;;;;;5013239;28;20496;-80
2022/06/12 12:34:17;;;;;;;14.10;3.03;;;25.60;69.40;;;;;;5018396;28;20490;-81
2022/06/12 12:42:31;;;;;;;7.00;2.53;;;25.40;70.20;;;;;;4966004;29;20470;-83
2022/06/12 12:45:16;;;;;;;8.63;2.40;;;25.40;70.30;;;;;;4991278;28;20458;-81
2022/06/12 12:47:43;;;;;;;6.23;2.27;;;25.20;68.20;;;;;;5010641;28;20509;-81
2022/06/12 12:50:20;;;;;;;6.17;2.40;;;25.00;66.90;;;;;;5009799;28;20465;-80
2022/06/12 12:52:50;;;;;;;5.43;2.40;;;25.10;67.40;;;;;;5015890;28;20463;-80
2022/06/12 12:55:22;;;;;;;6.70;2.23;;;24.90;65.10;;;;;;5015578;28;20441;-81
2022/06/12 12:57:50;;;;;;;6.53;2.53;;;24.90;65.20;;;;;;5013369;28;20429;-82
2022/06/12 13:00:31;;;;;;;8.23;2.27;;;25.10;65.70;;;;;;5008042;28;20471;-78
2022/06/12 13:03:02;;;;;;;5.70;2.40;;;25.30;64.10;;;;;;4993828;28;20535;-79
2022/06/12 13:05:50;;;;;;;5.60;1.77;;;25.20;62.70;;;;;;5002387;28;20993;-86
2022/06/12 13:08:32;;;;;;;6.10;2.90;;;25.20;62.80;;;;;;5020338;28;20471;-81
2022/06/12 13:11:09;;;;;;;6.33;2.60;;;25.10;63.70;;;;;;5004509;28;20575;-80
2022/06/12 13:13:58;;;;;;;6.33;2.13;;;25.00;63.90;;;;;;5005512;28;20472;-82
2022/06/12 13:16:35;;;;;;;8.03;2.43;;;25.20;64.00;;;;;;5004683;28;20456;-81
2022/06/12 13:19:16;;;;;;;4.37;1.93;;;25.40;63.40;;;;;;5005353;28;20464;-78
2022/06/12 13:21:57;;;;;;;7.30;1.70;;;25.60;62.90;;;;;;5008681;28;20491;-80
2022/06/12 13:24:30;;;;;;;4.40;1.70;;;25.70;62.10;;;;;;5009423;28;20524;-80
2022/06/12 13:26:58;;;;;;;7.03;2.60;;;25.60;62.10;;;;;;5011675;28;20501;-78
2022/06/12 13:29:27;;;;;;;4.03;2.20;;;25.90;62.60;;;;;;4994390;28;20531;-81
2022/06/12 13:31:56;;;;;;;5.40;2.53;;;26.10;62.10;;;;;;4997021;28;20444;-82
2022/06/12 13:34:23;;;;;;;4.87;2.20;;;26.20;62.40;;;;;;5002956;28;20848;-79